createdAt,value
2022-07-27T00:01:23.144Z,1.10
2022-07-27T00:04:31.076Z,1.45
2022-07-27T00:07:42.055Z,1.63
2022-07-27T00:10:53.193Z,1.48
2022-07-27T00:14:01.274Z,1.30
2022-07-27T00:17:13.276Z,1.63
2022-07-27T00:20:27.120Z,1.95
2022-07-27T00:23:38.988Z,1.67
2022-07-27T00:26:47.720Z,2.15
2022-07-27T00:29:58.722Z,1.50
2022-07-27T00:33:06.292Z,1.30
2022-07-27T00:36:14.720Z,1.60
2022-07-27T00:39:47.260Z,1.50
2022-07-27T00:43:08.488Z,1.73
2022-07-27T00:46:21.850Z,1.75
2022-07-27T00:49:37.166Z,1.30
2022-07-27T00:53:08.386Z,1.35
2022-07-27T01:01:11.744Z,1.63
2022-07-27T01:04:41.467Z,1.73
2022-07-27T01:08:25.570Z,1.90
2022-07-27T01:15:36.762Z,1.52
2022-07-27T01:22:33.034Z,1.70
2022-07-27T01:29:47.801Z,1.63
2022-07-27T01:33:08.503Z,1.50
2022-07-27T01:36:29.495Z,2.03
2022-07-27T01:40:02.785Z,2.10
2022-07-27T01:43:28.249Z,1.60
2022-07-27T01:46:51.954Z,1.67
2022-07-27T01:49:59.591Z,1.80
2022-07-27T01:53:10.968Z,1.70
2022-07-27T01:56:20.102Z,2.08
2022-07-27T01:59:28.447Z,1.70
2022-07-27T02:02:31.886Z,1.60
2022-07-27T02:05:35.122Z,1.63
2022-07-27T02:08:37.914Z,1.70
2022-07-27T02:11:59.936Z,1.90
2022-07-27T02:15:05.444Z,1.70
2022-07-27T02:18:14.583Z,1.98
2022-07-27T02:21:31.435Z,1.77
2022-07-27T02:24:35.319Z,1.80
2022-07-27T02:27:39.868Z,2.03
2022-07-27T02:30:42.583Z,2.00
2022-07-27T02:33:45.357Z,2.00
2022-07-27T02:36:48.162Z,1.85
2022-07-27T02:39:51.014Z,1.50
2022-07-27T02:42:55.086Z,1.70
2022-07-27T02:45:58.241Z,2.00
2022-07-27T02:49:01.032Z,1.80
2022-07-27T02:52:04.309Z,1.90
2022-07-27T02:55:08.781Z,1.88
2022-07-27T02:58:12.869Z,2.45
2022-07-27T03:01:16.199Z,1.90
2022-07-27T03:04:20.027Z,1.88
2022-07-27T03:07:22.797Z,2.10
2022-07-27T03:10:25.829Z,2.00
2022-07-27T03:13:30.126Z,2.30
2022-07-27T03:16:32.833Z,1.90
2022-07-27T03:19:35.640Z,2.10
2022-07-27T03:22:38.593Z,2.47
2022-07-27T03:25:41.364Z,2.13
2022-07-27T03:28:45.409Z,2.13
2022-07-27T03:31:48.189Z,2.63
2022-07-27T03:34:51.217Z,2.50
2022-07-27T03:37:54.043Z,2.42
2022-07-27T03:40:56.936Z,2.45
2022-07-27T03:44:01.014Z,2.90
2022-07-27T03:47:03.723Z,2.60
2022-07-27T03:50:07.771Z,2.55
2022-07-27T03:53:10.562Z,2.33
2022-07-27T03:56:13.291Z,2.38
2022-07-27T03:59:17.478Z,2.65
2022-07-27T04:02:20.285Z,2.40
2022-07-27T04:05:23.440Z,2.53
2022-07-27T04:08:32.268Z,2.70
2022-07-27T04:11:35.026Z,2.47
2022-07-27T04:14:41.702Z,2.90
2022-07-27T04:17:55.238Z,2.40
2022-07-27T04:21:01.931Z,2.60
2022-07-27T04:24:08.235Z,2.25
2022-07-27T04:27:10.925Z,2.47
2022-07-27T04:30:16.204Z,2.20
2022-07-27T04:33:18.899Z,2.53
2022-07-27T04:36:21.728Z,3.22
2022-07-27T04:39:29.920Z,2.60
2022-07-27T04:42:37.060Z,2.65
2022-07-27T04:45:57.863Z,2.30
2022-07-27T04:49:13.533Z,2.35
2022-07-27T04:52:26.310Z,2.30
2022-07-27T04:55:38.981Z,2.17
2022-07-27T04:59:09.827Z,2.58
2022-07-27T05:02:46.878Z,2.30
2022-07-27T05:06:27.649Z,2.42
2022-07-27T05:09:44.056Z,2.45
2022-07-27T05:12:55.922Z,2.53
2022-07-27T05:16:04.539Z,2.35
2022-07-27T05:23:09.945Z,2.47
2022-07-27T05:26:23.287Z,2.30
2022-07-27T05:29:50.077Z,2.72
2022-07-27T05:33:13.706Z,2.17
2022-07-27T05:36:25.728Z,2.50
2022-07-27T05:39:50.711Z,2.13
2022-07-27T05:43:20.739Z,2.28
2022-07-27T05:46:36.255Z,2.05
2022-07-27T05:49:47.094Z,1.98
2022-07-27T05:53:12.815Z,2.85
2022-07-27T06:00:00.628Z,1.92
2022-07-27T06:03:12.697Z,2.90
2022-07-27T06:06:41.356Z,2.20
2022-07-27T06:09:57.986Z,2.30
2022-07-27T06:13:28.727Z,2.38
2022-07-27T06:16:47.200Z,2.60
2022-07-27T06:20:18.446Z,2.80
2022-07-27T06:23:46.951Z,2.25
2022-07-27T06:27:29.786Z,2.40
2022-07-27T06:34:24.187Z,2.30
2022-07-27T06:37:29.514Z,2.50
2022-07-27T06:40:32.305Z,2.25
2022-07-27T06:43:36.427Z,3.00
2022-07-27T06:46:39.176Z,2.50
2022-07-27T06:49:41.877Z,2.53
2022-07-27T06:52:44.683Z,2.80
2022-07-27T06:55:47.472Z,2.40
2022-07-27T06:58:51.573Z,2.50
2022-07-27T07:01:54.346Z,2.20
2022-07-27T07:04:57.038Z,2.42
2022-07-27T07:08:00.899Z,2.28
2022-07-27T07:11:03.780Z,2.60
2022-07-27T07:14:07.841Z,2.83
2022-07-27T07:17:13.255Z,2.38
2022-07-27T07:20:16.585Z,2.50
2022-07-27T07:23:19.303Z,2.63
2022-07-27T07:26:22.056Z,2.20
2022-07-27T07:29:26.187Z,2.40
2022-07-27T07:32:33.413Z,2.63
2022-07-27T07:35:36.533Z,2.47
2022-07-27T07:38:39.350Z,2.40
2022-07-27T07:41:42.249Z,2.70
2022-07-27T07:44:46.446Z,2.53
2022-07-27T07:47:49.379Z,2.30
2022-07-27T07:50:53.913Z,2.03
2022-07-27T07:53:56.991Z,2.53
2022-07-27T07:56:59.725Z,2.83
2022-07-27T08:00:04.823Z,2.20
2022-07-27T08:03:07.614Z,2.53
2022-07-27T08:06:11.026Z,2.35
2022-07-27T08:09:16.850Z,2.42
2022-07-27T08:12:19.570Z,2.45
2022-07-27T08:15:34.575Z,2.47
2022-07-27T08:18:39.178Z,2.40
2022-07-27T08:21:41.865Z,2.22
2022-07-27T08:24:45.148Z,2.70
2022-07-27T08:27:47.936Z,2.90
2022-07-27T08:30:52.062Z,2.65
2022-07-27T08:33:54.807Z,2.90
2022-07-27T08:36:58.532Z,2.40
2022-07-27T08:43:25.692Z,2.35
2022-07-27T08:46:32.996Z,2.30
2022-07-27T08:49:43.697Z,2.28
2022-07-27T08:52:46.944Z,2.78
2022-07-27T08:55:49.763Z,2.00
2022-07-27T08:58:52.487Z,2.38
2022-07-27T09:01:56.670Z,2.30
2022-07-27T09:04:59.733Z,2.67
2022-07-27T09:08:11.219Z,2.60
2022-07-27T09:11:16.403Z,2.28
2022-07-27T09:14:19.167Z,2.03
2022-07-27T09:17:48.050Z,2.90
2022-07-27T09:21:10.265Z,2.40
2022-07-27T09:24:44.325Z,2.20
2022-07-27T09:27:40.120Z,2.30
2022-07-27T09:30:44.186Z,2.30
2022-07-27T09:33:51.101Z,2.25
2022-07-27T09:36:56.029Z,2.00
2022-07-27T09:40:22.607Z,2.00
2022-07-27T09:44:12.240Z,2.38
2022-07-27T09:46:51.640Z,2.10
2022-07-27T09:49:58.099Z,1.85
2022-07-27T09:53:41.837Z,2.10
2022-07-27T09:56:36.662Z,2.45
2022-07-27T09:59:39.406Z,1.90
2022-07-27T10:02:43.399Z,2.10
2022-07-27T10:05:47.583Z,2.00
2022-07-27T10:08:51.856Z,2.45
2022-07-27T10:11:54.674Z,2.30
2022-07-27T10:14:57.482Z,2.03
2022-07-27T10:18:09.002Z,2.00
2022-07-27T10:21:14.070Z,2.03
2022-07-27T10:24:28.799Z,1.95
2022-07-27T10:27:32.967Z,2.17
2022-07-27T10:30:35.790Z,2.20
2022-07-27T10:33:46.790Z,1.90
2022-07-27T10:36:54.233Z,1.90
2022-07-27T10:40:13.245Z,1.60
2022-07-27T10:43:21.503Z,1.80
2022-07-27T10:46:24.447Z,1.70
2022-07-27T10:49:29.226Z,1.80
2022-07-27T10:52:44.309Z,1.42
2022-07-27T10:55:51.560Z,1.73
2022-07-27T10:58:55.088Z,2.08
2022-07-27T11:01:59.391Z,1.88
2022-07-27T11:05:05.796Z,1.67
2022-07-27T11:11:34.536Z,1.67
2022-07-27T11:14:46.150Z,1.63
2022-07-27T11:17:58.495Z,1.88
2022-07-27T11:21:14.735Z,1.80
2022-07-27T11:24:19.031Z,1.40
2022-07-27T11:27:25.238Z,1.42
2022-07-27T11:30:29.609Z,1.92
2022-07-27T11:33:32.402Z,1.38
2022-07-27T11:36:41.114Z,1.30
2022-07-27T11:40:03.388Z,1.35
2022-07-27T11:43:08.031Z,1.10
2022-07-27T11:46:19.536Z,1.60
2022-07-27T11:49:28.498Z,0.95
2022-07-27T11:52:31.318Z,1.50
2022-07-27T11:55:35.375Z,1.23
2022-07-27T11:59:01.520Z,1.40
2022-07-27T12:02:07.137Z,1.45
2022-07-27T12:05:11.465Z,1.35
2022-07-27T12:08:14.399Z,1.27
2022-07-27T12:11:34.065Z,1.25
2022-07-27T12:14:39.116Z,1.00
2022-07-27T12:17:42.734Z,1.10
2022-07-27T12:20:48.575Z,0.98
2022-07-27T12:23:52.663Z,1.40
2022-07-27T12:27:06.857Z,1.30
2022-07-27T12:30:12.575Z,1.40
2022-07-27T12:33:27.432Z,1.10
2022-07-27T12:36:31.353Z,1.40
2022-07-27T12:39:34.084Z,1.10
2022-07-27T12:42:38.131Z,1.30
2022-07-27T12:45:40.994Z,1.40
2022-07-27T12:48:44.182Z,1.52
2022-07-27T12:51:46.960Z,1.17
2022-07-27T12:54:49.646Z,1.30
2022-07-27T12:57:56.521Z,1.20
2022-07-27T13:01:00.118Z,1.20
2022-07-27T13:04:03.344Z,1.13
2022-07-27T13:07:06.092Z,1.30
2022-07-27T13:10:11.119Z,1.30
2022-07-27T13:13:15.193Z,0.90
2022-07-27T13:16:17.923Z,1.40
2022-07-27T13:19:20.659Z,1.00
2022-07-27T13:22:23.389Z,1.15
2022-07-27T13:25:26.160Z,1.30
2022-07-27T13:28:30.275Z,1.13
2022-07-27T13:31:33.130Z,1.10
2022-07-27T13:34:35.971Z,1.40
2022-07-27T13:37:38.973Z,1.10
2022-07-27T13:40:41.854Z,1.35
2022-07-27T13:43:45.943Z,1.10
2022-07-27T13:46:49.684Z,1.50
2022-07-27T13:49:52.498Z,0.90
2022-07-27T13:52:55.456Z,1.30
2022-07-27T13:55:58.197Z,1.30
2022-07-27T13:59:02.327Z,1.00
2022-07-27T14:02:05.190Z,1.05
2022-07-27T14:05:09.682Z,1.10
2022-07-27T14:08:15.974Z,1.52
2022-07-27T14:11:18.699Z,1.30
2022-07-27T14:14:25.314Z,1.17
2022-07-27T14:17:29.992Z,1.25
2022-07-27T14:20:33.120Z,1.20
2022-07-27T14:23:37.004Z,1.08
2022-07-27T14:26:39.726Z,1.08
2022-07-27T14:29:43.911Z,1.42
2022-07-27T14:32:46.894Z,1.00
2022-07-27T14:35:49.642Z,1.10
2022-07-27T14:38:53.491Z,1.23
2022-07-27T14:41:56.227Z,1.02
2022-07-27T14:45:00.312Z,1.15
2022-07-27T14:48:03.115Z,0.98
2022-07-27T14:51:05.917Z,1.35
2022-07-27T14:54:08.669Z,1.13
2022-07-27T14:57:11.457Z,1.17
2022-07-27T15:00:17.263Z,1.00
2022-07-27T15:03:21.192Z,0.95
2022-07-27T15:06:23.880Z,0.98
2022-07-27T15:09:28.454Z,1.10
2022-07-27T15:12:36.135Z,1.00
2022-07-27T15:15:41.884Z,1.20
2022-07-27T15:18:45.869Z,1.13
2022-07-27T15:21:48.821Z,1.15
2022-07-27T15:24:52.573Z,1.10
2022-07-27T15:27:55.287Z,1.00
2022-07-27T15:30:59.444Z,1.02
2022-07-27T15:34:02.546Z,1.25
2022-07-27T15:37:07.587Z,1.10
2022-07-27T15:40:29.254Z,1.10
2022-07-27T15:43:32.027Z,0.98
2022-07-27T15:46:36.252Z,0.93
2022-07-27T15:49:38.987Z,1.20
2022-07-27T15:52:41.706Z,1.13
2022-07-27T15:55:44.624Z,1.33
2022-07-27T15:58:47.354Z,1.10
2022-07-27T16:01:51.612Z,1.10
2022-07-27T16:04:56.428Z,1.70
2022-07-27T16:07:59.371Z,1.27
2022-07-27T16:11:02.183Z,1.13
2022-07-27T16:14:05.208Z,1.15
2022-07-27T16:17:09.279Z,1.00
2022-07-27T16:20:13.444Z,1.00
2022-07-27T16:23:18.653Z,1.20
2022-07-27T16:26:24.903Z,0.93
2022-07-27T16:29:28.382Z,1.10
2022-07-27T16:32:32.878Z,1.00
2022-07-27T16:35:38.255Z,1.20
2022-07-27T16:38:49.482Z,1.25
2022-07-27T16:41:54.907Z,1.30
2022-07-27T16:44:57.631Z,1.23
2022-07-27T16:48:01.774Z,1.30
2022-07-27T16:51:04.765Z,1.33
2022-07-27T16:54:24.523Z,1.20
2022-07-27T16:57:28.243Z,1.10
2022-07-27T17:00:35.133Z,1.17
2022-07-27T17:03:46.878Z,1.20
2022-07-27T17:06:49.586Z,1.10
2022-07-27T17:09:52.414Z,1.10
2022-07-27T17:12:55.785Z,0.93
2022-07-27T17:16:00.968Z,0.98
2022-07-27T17:19:05.207Z,1.02
2022-07-27T17:22:07.975Z,0.90
2022-07-27T17:25:10.721Z,1.00
2022-07-27T17:28:14.225Z,1.30
2022-07-27T17:31:18.729Z,1.30
2022-07-27T17:34:22.925Z,1.00
2022-07-27T17:37:34.233Z,0.90
2022-07-27T17:40:46.454Z,1.00
2022-07-27T17:43:49.171Z,1.33
2022-07-27T17:46:51.984Z,0.95
2022-07-27T17:49:57.113Z,1.08
2022-07-27T17:52:59.859Z,1.25
2022-07-27T17:56:02.822Z,1.45
2022-07-27T17:59:34.916Z,1.02
2022-07-27T18:02:28.447Z,1.00
2022-07-27T18:05:32.892Z,1.17
2022-07-27T18:08:36.136Z,1.58
2022-07-27T18:11:39.297Z,1.05
2022-07-27T18:15:02.486Z,1.00
2022-07-27T18:18:05.435Z,1.20
2022-07-27T18:21:10.507Z,1.30
2022-07-27T18:24:13.308Z,1.10
2022-07-27T18:27:16.204Z,0.88
2022-07-27T18:30:20.777Z,0.90
2022-07-27T18:33:24.865Z,1.42
2022-07-27T18:36:29.392Z,1.13
2022-07-27T18:39:33.593Z,1.00
2022-07-27T18:42:36.961Z,1.23
2022-07-27T18:45:41.019Z,1.05
2022-07-27T18:48:44.376Z,0.95
2022-07-27T18:51:48.527Z,0.93
2022-07-27T18:54:51.699Z,0.90
2022-07-27T18:57:55.756Z,0.93
2022-07-27T19:00:59.521Z,1.10
2022-07-27T19:04:02.735Z,0.90
2022-07-27T19:07:08.285Z,0.90
2022-07-27T19:10:11.739Z,1.20
2022-07-27T19:13:14.571Z,0.95
2022-07-27T19:16:17.318Z,1.10
2022-07-27T19:19:23.185Z,1.17
2022-07-27T19:22:27.844Z,1.10
2022-07-27T19:25:31.355Z,1.13
2022-07-27T19:28:34.058Z,0.93
2022-07-27T19:31:37.807Z,1.10
2022-07-27T19:34:41.902Z,1.10
2022-07-27T19:37:45.946Z,1.20
2022-07-27T19:40:48.666Z,1.02
2022-07-27T19:43:51.402Z,1.05
2022-07-27T19:46:54.516Z,0.90
2022-07-27T19:49:57.224Z,1.40
2022-07-27T19:53:01.351Z,1.10
2022-07-27T19:56:04.401Z,1.10
2022-07-27T19:59:07.563Z,1.17
2022-07-27T20:02:10.447Z,1.20
2022-07-27T20:05:13.364Z,1.23
2022-07-27T20:08:17.580Z,1.10
2022-07-27T20:11:20.345Z,1.00
2022-07-27T20:14:23.078Z,1.20
2022-07-27T20:17:25.814Z,1.27
2022-07-27T20:20:28.743Z,1.35
2022-07-27T20:23:32.841Z,1.15
2022-07-27T20:26:35.612Z,1.30
2022-07-27T20:29:38.355Z,1.30
2022-07-27T20:32:41.094Z,1.30
2022-07-27T20:35:43.821Z,1.42
2022-07-27T20:38:48.250Z,1.75
2022-07-27T20:41:51.089Z,1.10
2022-07-27T20:44:54.158Z,1.25
2022-07-27T20:47:57.107Z,1.10
2022-07-27T20:51:00.451Z,1.17
2022-07-27T20:54:05.560Z,1.20
2022-07-27T20:57:08.563Z,1.20
2022-07-27T21:00:12.538Z,1.20
2022-07-27T21:03:15.273Z,0.90
2022-07-27T21:06:17.991Z,1.20
2022-07-27T21:09:22.381Z,1.40
2022-07-27T21:12:25.175Z,1.20
2022-07-27T21:15:33.555Z,1.23
2022-07-27T21:18:37.577Z,1.13
2022-07-27T21:21:40.411Z,1.40
2022-07-27T21:24:44.483Z,1.30
2022-07-27T21:27:52.828Z,1.30
2022-07-27T21:30:56.334Z,1.80
2022-07-27T21:33:59.130Z,1.45
2022-07-27T21:37:02.408Z,1.35
2022-07-27T21:40:07.370Z,1.40
2022-07-27T21:43:10.335Z,1.20
2022-07-27T21:46:13.477Z,1.35
2022-07-27T21:49:16.360Z,1.42
2022-07-27T21:52:19.163Z,2.20
2022-07-27T21:55:23.630Z,1.23
2022-07-27T21:58:26.923Z,1.30
2022-07-27T22:01:29.818Z,1.33
2022-07-27T22:04:32.668Z,1.70
2022-07-27T22:07:35.493Z,1.55
2022-07-27T22:10:39.940Z,1.45
2022-07-27T22:13:42.683Z,1.10
2022-07-27T22:16:45.550Z,1.60
2022-07-27T22:19:48.290Z,1.98
2022-07-27T22:22:51.811Z,1.67
2022-07-27T22:25:56.364Z,1.40
2022-07-27T22:29:00.912Z,1.27
2022-07-27T22:32:03.847Z,1.60
2022-07-27T22:35:07.713Z,1.02
2022-07-27T22:38:32.260Z,1.58
2022-07-27T22:41:49.701Z,1.52
2022-07-27T22:45:03.896Z,1.10
2022-07-27T22:48:10.609Z,0.90
2022-07-27T22:51:19.058Z,1.67
2022-07-27T23:06:42.499Z,1.65
2022-07-27T23:09:50.613Z,1.10
2022-07-27T23:13:11.505Z,1.33
2022-07-27T23:17:00.905Z,1.20
2022-07-27T23:20:31.423Z,1.30
2022-07-27T23:23:52.221Z,1.48
2022-07-27T23:27:01.979Z,1.27
2022-07-27T23:30:13.482Z,1.20
2022-07-27T23:33:20.930Z,1.40
2022-07-27T23:36:33.174Z,1.33
2022-07-27T23:39:41.300Z,1.20
2022-07-27T23:42:54.184Z,1.30
2022-07-27T23:46:04.692Z,1.15
2022-07-27T23:49:15.570Z,1.27
2022-07-27T23:52:27.865Z,1.40
2022-07-27T23:55:36.578Z,1.30
2022-07-27T23:58:48.061Z,1.20
